Time;durP1;ratioP1;P1;durP2;ratioP2;P2;SDS_P1;SDS_P2;PMS_P1;PMS_P2;Temp;Humidity;BMP_temperature;BMP_pressure;BME280_temperature;BME280_humidity;BME280_pressure;Samples;Min_cycle;Max_cycle;Signal;HPM_P1;HPM_P2
2022/08/22 00:00:19;;;;;;;1.83;1.00;;;;;;;20.34;40.81;92195.13;5074390;28;20056;-78
2022/08/22 00:03:04;;;;;;;2.60;1.30;;;;;;;20.50;39.62;92193.09;5073980;28;20139;-78
2022/08/22 00:05:49;;;;;;;2.15;1.10;;;;;;;20.53;40.17;92191.63;5074204;28;20033;-78
2022/08/22 00:08:26;;;;;;;3.28;1.35;;;;;;;20.47;39.98;92193.81;5074774;28;20043;-78
2022/08/22 00:11:32;;;;;;;1.52;1.00;;;;;;;20.42;40.15;92196.75;5075330;28;20040;-78
2022/08/22 00:14:08;;;;;;;2.45;0.93;;;;;;;20.40;39.87;92199.03;5054824;28;20037;-78
2022/08/22 00:16:58;;;;;;;1.70;1.00;;;;;;;20.41;39.95;92192.56;5072462;28;20043;-78
2022/08/22 00:19:40;;;;;;;3.90;1.25;;;;;;;20.34;40.35;92195.13;5075803;28;20085;-77
2022/08/22 00:22:18;;;;;;;;;;;;;;;20.33;40.17;92193.56;5078683;28;20043;-78
2022/08/22 00:25:09;;;;;;;5.47;1.20;;;;;;;20.28;40.18;92196.53;5079210;28;19912;-77
2022/08/22 00:27:52;;;;;;;2.33;1.20;;;;;;;20.26;40.38;92196.88;5069983;28;20040;-78
2022/08/22 00:30:18;;;;;;;4.43;1.20;;;;;;;20.23;39.81;92186.94;5066421;28;20036;-77
2022/08/22 00:32:51;;;;;;;1.73;1.00;;;;;;;20.22;40.24;92190.75;5076397;28;20032;-78
2022/08/22 00:35:39;;;;;;;3.13;1.30;;;;;;;20.18;40.37;92197.88;5078532;28;20051;-78
2022/08/22 00:38:14;;;;;;;2.42;1.30;;;;;;;20.18;40.45;92197.88;5078530;28;20182;-78
2022/08/22 00:40:52;;;;;;;1.85;1.10;;;;;;;20.16;40.32;92195.56;5079113;28;20029;-78
2022/08/22 00:43:24;;;;;;;1.63;1.00;;;;;;;20.17;40.44;92193.66;5077271;28;20543;-77
2022/08/22 00:45:58;;;;;;;3.08;1.10;;;;;;;20.27;40.11;92195.00;5079137;28;20108;-78
2022/08/22 00:48:49;;;;;;;1.33;1.10;;;;;;;20.20;40.08;92200.16;5076954;28;20043;-77
2022/08/22 00:51:59;;;;;;;1.45;1.05;;;;;;;20.15;40.43;92196.69;5078677;28;20520;-78
2022/08/22 00:54:40;;;;;;;1.60;1.10;;;;;;;20.12;40.33;92200.03;5052806;28;20154;-78
2022/08/22 00:57:24;;;;;;;1.70;1.10;;;;;;;20.09;40.51;92195.44;5075733;28;20032;-78
2022/08/22 01:00:15;;;;;;;1.27;1.00;;;;;;;20.11;40.37;92197.75;5077755;28;20079;-78
2022/08/22 01:02:41;;;;;;;2.20;1.10;;;;;;;20.08;40.35;92193.88;5076343;28;20032;-78
2022/08/22 01:05:21;;;;;;;3.42;1.20;;;;;;;20.05;40.44;92191.94;5076845;28;20580;-78
2022/08/22 01:08:02;;;;;;;2.10;1.17;;;;;;;20.09;40.16;92195.44;5078021;28;20027;-78
2022/08/22 01:10:46;;;;;;;2.17;1.17;;;;;;;20.07;40.38;92197.69;5079593;28;20036;-77
2022/08/22 01:13:30;;;;;;;1.70;1.10;;;;;;;20.01;40.67;92198.31;5076516;28;20036;-77
2022/08/22 01:16:05;;;;;;;1.90;1.10;;;;;;;19.98;40.68;92199.78;5065205;28;20029;-78
2022/08/22 01:18:49;;;;;;;2.08;1.17;;;;;;;19.95;40.44;92201.25;5066673;28;20029;-78
2022/08/22 01:21:39;;;;;;;3.30;1.10;;;;;;;19.99;40.24;92197.91;5076481;28;20605;-77
2022/08/22 01:24:35;;;;;;;1.33;0.93;;;;;;;20.01;40.23;92193.75;5078728;28;20126;-77
2022/08/22 01:27:06;;;;;;;1.58;1.00;;;;;;;20.02;40.25;92199.84;5064889;28;20486;-77
2022/08/22 01:29:57;;;;;;;1.40;1.00;;;;;;;20.02;40.29;92195.31;5064044;28;20037;-78
2022/08/22 01:33:15;;;;;;;2.22;1.15;;;;;;;20.06;40.10;92190.84;5075369;28;20394;-78
2022/08/22 01:36:31;;;;;;;1.90;1.00;;;;;;;20.03;40.23;92194.19;5030541;28;20056;-78
2022/08/22 01:39:20;;;;;;;2.78;1.20;;;;;;;20.04;40.14;92189.63;5059111;28;20143;-78
2022/08/22 01:41:52;;;;;;;1.35;1.00;;;;;;;20.03;40.35;92191.53;5077108;28;20178;-78
2022/08/22 01:44:17;;;;;;;1.57;1.10;;;;;;;20.01;40.42;92191.09;5077626;28;20123;-78
2022/08/22 01:46:45;;;;;;;2.60;1.20;;;;;;;19.99;40.45;92185.38;5077723;28;20384;-77
2022/08/22 01:49:25;;;;;;;1.73;1.02;;;;;;;19.99;40.58;92180.06;5077644;28;20390;-78
2022/08/22 01:52:01;;;;;;;3.40;1.27;;;;;;;19.97;40.59;92187.63;5076508;28;20040;-78
2022/08/22 01:54:54;;;;;;;3.22;1.10;;;;;;;19.95;40.67;92189.88;5078056;28;20043;-78
2022/08/22 01:57:22;;;;;;;1.23;1.00;;;;;;;19.95;40.48;92187.97;5064052;28;20044;-78
2022/08/22 01:59:51;;;;;;;2.38;1.10;;;;;;;19.97;40.36;92192.94;5058613;28;20040;-78
2022/08/22 02:02:29;;;;;;;2.13;1.20;;;;;;;20.01;40.06;92193.00;5057212;28;20199;-78
2022/08/22 02:05:27;;;;;;;1.35;1.00;;;;;;;20.05;39.91;92194.59;5057606;28;20058;-78
2022/08/22 02:08:19;;;;;;;2.22;1.10;;;;;;;20.11;39.73;92189.78;5058918;28;20036;-78
2022/08/22 02:11:00;;;;;;;3.28;1.20;;;;;;;20.12;39.77;92184.09;5063113;28;20049;-78
2022/08/22 02:13:47;;;;;;;1.38;1.00;;;;;;;20.12;39.93;92184.09;5057591;28;20349;-78
2022/08/22 02:16:36;;;;;;;2.05;1.20;;;;;;;20.13;39.63;92184.88;5058289;28;20025;-78
2022/08/22 02:19:14;;;;;;;2.72;0.95;;;;;;;20.11;39.78;92182.56;5070251;28;20068;-78
2022/08/22 02:21:43;;;;;;;2.08;1.20;;;;;;;20.09;39.78;92187.47;5075658;28;20032;-78
2022/08/22 02:24:24;;;;;;;1.52;1.00;;;;;;;20.08;40.02;92187.81;5078207;28;20025;-78
2022/08/22 02:27:22;;;;;;;1.33;0.98;;;;;;;20.05;40.35;92189.28;5076522;28;20047;-78
2022/08/22 02:30:04;;;;;;;2.13;1.20;;;;;;;20.03;40.30;92183.56;5072625;28;20461;-78
2022/08/22 02:32:38;;;;;;;1.60;0.90;;;;;;;20.04;40.21;92181.66;5075539;28;20040;-78
2022/08/22 02:35:23;;;;;;;3.13;1.20;;;;;;;20.05;39.89;92178.66;5076976;28;20492;-78
2022/08/22 02:38:21;;;;;;;2.20;1.05;;;;;;;20.01;40.11;92172.50;5073475;28;20044;-78
2022/08/22 02:41:11;;;;;;;1.83;1.10;;;;;;;20.03;40.07;92178.25;5053902;28;20121;-78
2022/08/22 02:43:50;;;;;;;1.60;1.00;;;;;;;20.03;40.13;92175.59;5066863;28;20044;-78
2022/08/22 02:46:24;;;;;;;2.38;1.20;;;;;;;20.01;39.76;92180.47;5061308;28;20102;-78
2022/08/22 02:49:10;;;;;;;1.25;0.98;;;;;;;19.99;40.04;92168.69;5077258;28;20131;-79
2022/08/22 02:52:04;;;;;;;2.35;1.20;;;;;;;19.97;40.16;92171.69;5074231;28;20505;-77
2022/08/22 02:54:45;;;;;;;2.83;1.10;;;;;;;20.00;40.01;92170.22;5075218;28;20070;-77
2022/08/22 02:57:10;;;;;;;1.73;1.15;;;;;;;19.93;40.05;92163.66;5077366;28;20028;-80
2022/08/22 03:00:08;;;;;;;1.50;1.02;;;;;;;19.93;39.91;92158.34;5071667;28;20393;-80
2022/08/22 03:02:38;;;;;;;2.70;1.17;;;;;;;19.92;39.61;92162.09;5071146;28;20055;-78
2022/08/22 03:05:39;;;;;;;1.55;1.05;;;;;;;19.92;39.73;92159.44;5073910;28;20368;-78
2022/08/22 03:08:09;;;;;;;2.10;1.10;;;;;;;19.92;39.67;92154.13;5072810;28;20134;-77
2022/08/22 03:10:44;;;;;;;1.67;1.10;;;;;;;19.93;39.66;92155.69;5073371;28;20394;-79
2022/08/22 03:13:17;;;;;;;1.60;1.10;;;;;;;19.91;39.46;92146.53;5056388;28;20439;-80
2022/08/22 03:15:51;;;;;;;2.15;1.08;;;;;;;19.84;39.86;92147.19;5053691;28;20096;-78
2022/08/22 03:18:20;;;;;;;2.60;1.02;;;;;;;19.87;39.28;92153.66;5056264;28;20078;-79
2022/08/22 03:21:16;;;;;;;1.85;1.10;;;;;;;19.90;38.93;92155.59;5062873;28;20028;-79
2022/08/22 03:23:41;;;;;;;2.70;1.05;;;;;;;19.91;38.74;92159.81;5080236;28;20040;-79
2022/08/22 03:26:24;;;;;;;2.53;1.17;;;;;;;19.93;38.85;92152.28;5085659;28;20044;-79
2022/08/22 03:29:06;;;;;;;1.50;1.00;;;;;;;19.86;39.44;92152.91;5083536;28;20064;-79
2022/08/22 03:31:32;;;;;;;;;;;;;;;19.81;39.76;92161.13;5085674;28;20498;-76
2022/08/22 03:34:21;;;;;;;2.45;1.00;;;;;;;19.74;40.09;92153.03;5086011;28;20004;-79
2022/08/22 03:37:26;;;;;;;1.67;1.08;;;;;;;19.65;40.36;92155.88;5068517;28;20068;-79
2022/08/22 03:40:14;;;;;;;2.40;1.00;;;;;;;19.58;40.66;92147.78;5079021;28;20547;-79
2022/08/22 03:42:42;;;;;;;1.25;1.05;;;;;;;19.58;40.35;92150.44;5086430;28;20028;-79
2022/08/22 03:45:23;;;;;;;1.83;1.10;;;;;;;19.58;40.16;92149.69;5087204;28;20036;-79
2022/08/22 03:48:12;;;;;;;1.63;1.05;;;;;;;19.58;40.35;92154.97;5086677;28;20039;-78
2022/08/22 03:51:09;;;;;;;1.40;0.93;;;;;;;19.56;40.41;92153.44;5087197;28;20040;-78
2022/08/22 03:53:57;;;;;;;2.78;1.00;;;;;;;19.55;40.51;92151.16;5088188;28;20104;-78
2022/08/22 03:57:16;;;;;;;1.20;0.90;;;;;;;19.54;40.63;92147.72;5088190;28;20055;-79
2022/08/22 03:59:48;;;;;;;3.58;1.30;;;;;;;19.56;39.99;92152.66;5091378;28;20357;-78
2022/08/22 04:02:44;;;;;;;2.63;1.20;;;;;;;19.56;40.65;92142.06;5090134;28;20042;-78
2022/08/22 04:05:21;;;;;;;2.35;1.20;;;;;;;19.50;40.62;92144.22;5091950;28;20051;-78
2022/08/22 04:08:13;;;;;;;1.63;1.10;;;;;;;19.48;41.50;92148.34;5071195;28;20064;-78
2022/08/22 04:10:57;;;;;;;1.67;1.20;;;;;;;19.43;41.28;92156.56;5054756;28;20048;-78
2022/08/22 04:13:26;;;;;;;2.25;1.20;;;;;;;19.51;40.51;92147.66;5072180;28;20092;-78
2022/08/22 04:16:10;;;;;;;1.63;1.10;;;;;;;19.47;40.78;92149.47;5090039;28;20100;-78
2022/08/22 04:19:06;;;;;;;2.10;1.20;;;;;;;19.43;40.94;92151.28;5088019;28;20024;-78
2022/08/22 04:21:58;;;;;;;1.75;1.05;;;;;;;19.42;41.24;92147.09;5071328;28;20035;-78
2022/08/22 04:24:58;;;;;;;2.37;1.10;;;;;;;19.40;41.06;92155.38;5070955;28;20462;-79
2022/08/22 04:30:38;;;;;;;1.50;1.00;;;;;;;19.32;41.92;92149.19;5070892;28;20417;-79
2022/08/22 04:33:14;;;;;;;1.55;0.90;;;;;;;19.30;41.50;92146.09;5071438;28;20028;-78
2022/08/22 04:35:54;;;;;;;1.58;1.10;;;;;;;19.31;41.55;92158.25;5070782;28;20571;-76
2022/08/22 04:38:27;;;;;;;1.98;1.10;;;;;;;19.29;42.03;92155.16;5075819;28;20410;-76
2022/08/22 04:40:57;;;;;;;3.42;1.20;;;;;;;19.26;42.18;92152.47;5074440;28;20056;-76
2022/08/22 04:43:47;;;;;;;2.92;1.30;;;;;;;19.25;42.39;92154.34;5073521;28;20470;-76
2022/08/22 04:46:33;;;;;;;1.20;0.90;;;;;;;19.24;42.49;92152.78;5074751;28;20028;-76
2022/08/22 04:49:26;;;;;;;3.38;1.10;;;;;;;19.22;42.09;92155.03;5073234;28;20040;-76
2022/08/22 04:52:04;;;;;;;2.67;1.15;;;;;;;19.21;43.18;92163.34;5070254;28;20039;-76
2022/08/22 04:54:51;;;;;;;1.23;1.02;;;;;;;19.23;43.09;92166.41;5075382;28;20040;-76
2022/08/22 04:57:49;;;;;;;1.10;1.00;;;;;;;19.26;42.51;92168.38;5062599;28;20505;-76
2022/08/22 05:00:16;;;;;;;3.28;1.20;;;;;;;19.28;42.58;92158.94;5070861;28;20092;-77
2022/08/22 05:02:50;;;;;;;2.90;1.20;;;;;;;19.34;42.33;92162.09;5057168;28;20033;-78
2022/08/22 05:05:23;;;;;;;2.13;1.23;;;;;;;19.30;42.13;92162.03;5057715;28;20033;-78
2022/08/22 05:07:59;;;;;;;2.33;1.25;;;;;;;19.37;42.39;92166.72;5060601;28;20094;-79
2022/08/22 05:10:31;;;;;;;2.70;1.30;;;;;;;19.41;43.19;92172.88;5062332;28;20037;-79
2022/08/22 05:13:05;;;;;;;1.90;1.05;;;;;;;19.45;42.85;92179.00;5066660;28;20043;-78
2022/08/22 05:15:34;;;;;;;3.22;1.15;;;;;;;19.47;42.75;92176.00;5084067;28;20025;-78
2022/08/22 05:18:23;;;;;;;2.03;1.08;;;;;;;19.50;44.16;92176.09;5080542;28;20029;-77
2022/08/22 05:20:51;;;;;;;2.00;1.17;;;;;;;19.50;45.01;92177.97;5073548;28;20398;-77
2022/08/22 05:23:26;;;;;;;2.05;1.20;;;;;;;19.53;44.77;92179.91;5074376;28;20043;-77
2022/08/22 05:25:58;;;;;;;1.88;1.20;;;;;;;19.60;44.23;92185.38;5073982;28;20020;-78
2022/08/22 05:29:06;;;;;;;2.10;1.30;;;;;;;19.68;44.35;92184.41;5078336;28;20040;-78
2022/08/22 05:31:42;;;;;;;3.38;1.30;;;;;;;19.65;44.94;92177.13;5066117;28;20065;-80
2022/08/22 05:34:19;;;;;;;2.70;1.00;;;;;;;19.72;44.14;92184.50;5031834;28;20056;-81
2022/08/22 05:36:55;;;;;;;4.35;1.08;;;;;;;19.78;44.18;92188.41;5060152;28;20677;-81
2022/08/22 05:39:24;;;;;;;1.33;1.02;;;;;;;19.79;44.21;92186.50;5068646;28;20036;-81
2022/08/22 05:41:53;;;;;;;1.88;1.10;;;;;;;19.79;44.40;92189.16;5087810;28;20037;-81
2022/08/22 05:44:31;;;;;;;3.17;1.38;;;;;;;19.74;44.47;92179.59;5089194;28;20031;-82
2022/08/22 05:47:01;;;;;;;3.28;1.30;;;;;;;19.85;44.82;92183.22;5088468;28;20028;-81
2022/08/22 05:49:39;;;;;;;6.43;2.05;;;;;;;20.01;44.70;92193.75;5087849;28;20445;-82
2022/08/22 05:52:27;;;;;;;2.00;1.20;;;;;;;20.22;44.12;92189.94;5089461;28;20230;-81
2022/08/22 05:55:02;;;;;;;1.80;1.10;;;;;;;20.43;44.10;92187.69;5087076;28;20021;-81
2022/08/22 05:57:34;;;;;;;2.15;1.20;;;;;;;20.64;44.25;92189.19;5088435;28;20056;-82
2022/08/22 06:00:08;;;;;;;1.63;1.10;;;;;;;20.81;42.89;92191.34;5088060;28;20040;-80
2022/08/22 06:02:52;;;;;;;2.45;1.35;;;;;;;20.92;43.93;92192.28;5089063;28;20028;-81
2022/08/22 06:05:25;;;;;;;2.03;1.15;;;;;;;21.09;44.27;92190.25;5084096;28;20036;-81
2022/08/22 06:07:58;;;;;;;2.90;1.40;;;;;;;21.26;44.11;92189.72;5074620;28;20421;-80
2022/08/22 06:10:36;;;;;;;3.53;1.30;;;;;;;21.41;44.43;92180.84;5073779;28;20043;-81
2022/08/22 06:13:31;;;;;;;2.53;1.23;;;;;;;21.66;42.07;92177.72;5087214;28;20084;-81
2022/08/22 06:16:04;;;;;;;1.98;1.10;;;;;;;21.85;42.41;92179.47;5087120;28;20113;-81
2022/08/22 06:18:31;;;;;;;2.17;1.27;;;;;;;22.08;42.14;92176.66;5085777;28;20081;-82
2022/08/22 06:21:01;;;;;;;1.90;1.02;;;;;;;22.68;42.66;92182.97;5085955;28;20020;-81
2022/08/22 06:23:57;;;;;;;2.25;1.00;;;;;;;24.15;38.73;92181.91;5088479;28;20032;-81
2022/08/22 06:26:27;;;;;;;1.70;1.20;;;;;;;25.17;36.53;92189.66;5076620;28;20051;-82
2022/08/22 06:28:58;;;;;;;2.42;1.30;;;;;;;26.22;33.92;92182.88;5087528;28;20062;-82
2022/08/22 06:31:31;;;;;;;1.65;1.25;;;;;;;27.24;33.15;92194.50;5087858;28;20035;-81
2022/08/22 06:34:03;;;;;;;1.95;1.30;;;;;;;27.85;33.15;92193.91;5088500;28;20036;-81
2022/08/22 06:36:31;;;;;;;2.70;1.30;;;;;;;28.81;31.51;92192.69;5088791;28;20044;-82
2022/08/22 06:39:22;;;;;;;3.08;1.33;;;;;;;29.32;30.94;92202.69;5089035;28;20363;-82
2022/08/22 06:41:53;;;;;;;4.47;1.23;;;;;;;29.82;29.10;92199.16;5088895;28;20033;-82
2022/08/22 06:44:23;;;;;;;2.97;1.30;;;;;;;30.28;31.20;92202.88;5088026;28;20036;-82
2022/08/22 06:46:53;;;;;;;2.65;1.50;;;;;;;29.88;33.04;92194.81;5088668;28;20445;-82
2022/08/22 06:49:22;;;;;;;2.35;1.38;;;;;;;29.96;33.69;92200.81;5088399;28;20033;-82
2022/08/22 06:51:48;;;;;;;5.07;1.50;;;;;;;30.32;31.66;92205.53;5088652;28;20025;-82
2022/08/22 06:54:19;;;;;;;1.90;1.30;;;;;;;30.24;31.21;92205.66;5088343;28;20067;-83
2022/08/22 06:56:47;;;;;;;3.03;1.30;;;;;;;30.14;29.34;92200.47;5088814;28;20048;-81
2022/08/22 06:59:16;;;;;;;2.00;1.30;;;;;;;29.02;33.53;92212.38;5084289;28;20036;-81
2022/08/22 07:01:45;;;;;;;2.38;1.40;;;;;;;28.59;34.18;92207.63;5086570;28;20025;-81
2022/08/22 07:04:10;;;;;;;2.58;1.30;;;;;;;27.90;35.55;92196.16;5087353;28;20036;-82
2022/08/22 07:06:45;;;;;;;3.90;1.55;;;;;;;27.09;36.02;92199.19;5087242;28;20036;-80
2022/08/22 07:09:30;;;;;;;3.67;1.27;;;;;;;26.44;39.61;92198.88;5080603;28;20039;-81
2022/08/22 07:11:59;;;;;;;3.42;1.40;;;;;;;25.71;39.24;92208.34;5087314;28;20032;-82
2022/08/22 07:14:30;;;;;;;2.67;1.17;;;;;;;25.37;40.58;92208.03;5086433;28;20040;-81
2022/08/22 07:16:59;;;;;;;4.05;1.33;;;;;;;25.29;41.69;92207.28;5086975;28;20025;-81
2022/08/22 07:19:32;;;;;;;2.85;1.30;;;;;;;25.69;41.07;92202.59;5087162;28;20285;-80
2022/08/22 07:22:08;;;;;;;2.13;1.30;;;;;;;25.92;40.08;92213.66;5087051;28;20509;-81
2022/08/22 07:24:35;;;;;;;2.85;1.40;;;;;;;25.41;41.14;92217.59;5087833;28;20392;-81
2022/08/22 07:27:36;;;;;;;5.25;2.03;;;;;;;25.12;40.58;92220.25;5087315;28;20030;-82
2022/08/22 07:30:06;;;;;;;3.20;1.50;;;;;;;25.04;40.30;92218.75;5086620;28;20375;-81
2022/08/22 07:32:50;;;;;;;2.60;1.23;;;;;;;25.17;40.98;92223.72;5090690;28;20036;-80
2022/08/22 07:35:25;;;;;;;4.25;1.35;;;;;;;25.13;40.46;92221.81;5089287;28;20036;-81
2022/08/22 07:37:55;;;;;;;3.03;1.42;;;;;;;25.04;42.29;92218.75;5089811;28;20055;-80
2022/08/22 07:40:41;;;;;;;3.03;1.27;;;;;;;24.73;43.55;92213.00;5089444;28;20424;-80
2022/08/22 07:43:32;;;;;;;4.53;1.30;;;;;;;24.81;43.91;92216.44;5089882;28;20068;-81
2022/08/22 07:46:31;;;;;;;4.13;1.20;;;;;;;25.32;43.22;92217.22;5090578;28;20038;-80
2022/08/22 07:49:20;;;;;;;3.22;1.27;;;;;;;25.22;43.37;92209.97;5085588;28;20096;-81
2022/08/22 07:52:09;;;;;;;4.15;1.30;;;;;;;24.54;45.70;92216.03;5081890;28;20048;-79
2022/08/22 07:54:46;;;;;;;2.35;1.20;;;;;;;24.34;45.14;92212.91;5090084;28;20067;-81
2022/08/22 07:57:27;;;;;;;4.43;1.30;;;;;;;24.21;45.47;92214.41;5090066;28;20033;-79
2022/08/22 07:59:56;;;;;;;3.25;1.20;;;;;;;24.12;48.00;92209.41;5087451;28;20024;-79
2022/08/22 08:02:24;;;;;;;4.25;1.73;;;;;;;24.14;45.70;92215.16;5089758;28;20051;-80
2022/08/22 08:04:52;;;;;;;3.30;1.45;;;;;;;24.58;42.40;92218.72;5070837;28;20021;-80
2022/08/22 08:07:23;;;;;;;3.30;1.63;;;;;;;24.57;46.04;92219.88;5088321;28;20045;-80
2022/08/22 08:09:53;;;;;;;3.33;1.55;;;;;;;24.43;43.81;92212.53;5089280;28;20028;-81
2022/08/22 08:12:27;;;;;;;1.52;1.13;;;;;;;23.95;46.77;92208.19;5089208;28;20092;-81
2022/08/22 08:14:54;;;;;;;2.67;1.40;;;;;;;24.02;48.11;92218.16;5088340;28;20051;-82
2022/08/22 08:17:27;;;;;;;2.65;1.25;;;;;;;24.01;47.43;92219.31;5089132;28;20036;-79
2022/08/22 08:19:55;;;;;;;2.90;1.40;;;;;;;24.15;48.43;92211.31;5089652;28;20033;-80
2022/08/22 08:22:25;;;;;;;3.25;1.30;;;;;;;24.12;47.79;92220.09;5089376;28;20064;-81
2022/08/22 08:24:56;;;;;;;2.70;1.35;;;;;;;24.09;47.95;92213.59;5088745;28;20054;-81
2022/08/22 08:30:17;;;;;;;3.33;1.50;;;;;;;24.05;45.47;92206.72;5088300;28;20043;-81
2022/08/22 08:32:51;;;;;;;2.78;1.10;;;;;;;24.05;46.61;92212.06;5088925;28;20044;-81
2022/08/22 08:35:22;;;;;;;2.65;1.20;;;;;;;24.21;45.22;92215.16;5075787;28;20025;-81
2022/08/22 08:38:07;;;;;;;2.77;1.30;;;;;;;24.17;44.49;92213.63;5084022;28;20067;-81
2022/08/22 08:40:33;;;;;;;1.77;1.20;;;;;;;24.14;43.09;92209.81;5080702;28;20529;-80
2022/08/22 08:46:06;;;;;;;3.28;1.25;;;;;;;24.24;42.23;92217.06;5079983;28;20028;-80
2022/08/22 08:48:32;;;;;;;4.20;1.30;;;;;;;24.45;42.00;92212.91;5088375;28;20131;-80
2022/08/22 08:51:09;;;;;;;2.55;1.30;;;;;;;24.57;43.34;92204.56;5087796;28;20068;-81
2022/08/22 08:53:38;;;;;;;1.27;1.00;;;;;;;24.63;41.70;92208.41;5087238;28;20043;-80
2022/08/22 08:56:16;;;;;;;2.42;1.20;;;;;;;24.90;38.01;92200.78;5086547;28;20028;-80
2022/08/22 08:59:06;;;;;;;2.28;1.38;;;;;;;25.03;42.22;92203.81;5087030;28;20081;-80
2022/08/22 09:01:53;;;;;;;2.55;1.20;;;;;;;24.77;38.91;92198.84;5080934;28;20043;-81
2022/08/22 09:04:33;;;;;;;2.55;1.35;;;;;;;24.75;43.55;92209.19;5088001;28;20047;-80
2022/08/22 09:07:27;;;;;;;2.28;1.20;;;;;;;24.84;39.93;92201.56;5088538;28;20045;-80
2022/08/22 09:10:10;;;;;;;3.00;1.45;;;;;;;24.99;39.01;92189.66;5088557;28;20028;-80
2022/08/22 09:12:49;;;;;;;4.30;1.50;;;;;;;24.87;42.30;92195.41;5088902;28;20040;-79
2022/08/22 09:15:30;;;;;;;1.70;1.10;;;;;;;24.62;42.39;92200.75;5079848;28;21438;-79
2022/08/22 09:18:23;;;;;;;2.40;1.27;;;;;;;24.40;38.36;92192.66;5088086;28;20040;-80
2022/08/22 09:21:07;;;;;;;1.40;1.10;;;;;;;24.43;42.68;92191.91;5082325;28;20162;-79
2022/08/22 09:24:07;;;;;;;4.30;1.25;;;;;;;24.71;42.79;92193.88;5079278;28;20036;-79
2022/08/22 09:26:47;;;;;;;1.77;1.10;;;;;;;25.01;41.16;92179.34;5084792;28;20040;-80
2022/08/22 09:29:45;;;;;;;2.63;1.30;;;;;;;25.16;38.58;92184.69;5081276;28;20096;-80
2022/08/22 09:32:15;;;;;;;2.78;1.33;;;;;;;25.47;39.72;92189.28;5087006;28;20056;-78
2022/08/22 09:35:06;;;;;;;3.63;1.30;;;;;;;25.17;36.12;92178.94;5085985;28;20043;-79
2022/08/22 09:37:45;;;;;;;3.20;1.40;;;;;;;25.46;38.95;92182.38;5087670;28;20044;-80
2022/08/22 09:40:27;;;;;;;3.53;1.40;;;;;;;25.57;38.34;92181.59;5086228;28;20041;-80
2022/08/22 09:43:15;;;;;;;2.22;1.30;;;;;;;26.06;37.34;92185.28;5083280;28;20029;-80
2022/08/22 09:45:57;;;;;;;2.35;1.20;;;;;;;26.41;35.87;92175.50;5086165;28;20028;-79
2022/08/22 09:48:55;;;;;;;1.90;1.17;;;;;;;26.40;36.75;92172.06;5072720;28;20028;-80
2022/08/22 09:51:48;;;;;;;2.38;1.40;;;;;;;26.35;36.96;92173.22;5069923;28;20032;-80
2022/08/22 09:54:40;;;;;;;2.38;1.33;;;;;;;26.14;38.86;92163.41;5074806;28;20079;-80
2022/08/22 09:57:30;;;;;;;4.25;1.25;;;;;;;26.42;37.74;92163.63;5075867;28;20051;-80
2022/08/22 10:00:13;;;;;;;1.85;1.30;;;;;;;26.57;38.38;92170.47;5085292;28;20028;-79
2022/08/22 10:02:59;;;;;;;2.72;1.27;;;;;;;26.48;37.07;92167.41;5086938;28;20108;-80
2022/08/22 10:06:00;;;;;;;1.83;1.13;;;;;;;26.57;37.52;92160.47;5079108;28;20035;-79
2022/08/22 10:08:37;;;;;;;2.75;1.30;;;;;;;26.72;35.81;92155.75;5079322;28;20040;-80
2022/08/22 10:11:24;;;;;;;2.33;1.35;;;;;;;26.60;32.74;92153.56;5088610;28;20025;-81
2022/08/22 10:14:07;;;;;;;1.95;1.20;;;;;;;26.58;36.36;92145.88;5078875;28;20044;-80
2022/08/22 10:16:54;;;;;;;3.72;1.60;;;;;;;26.68;37.25;92156.94;5087745;28;20036;-79
2022/08/22 10:19:33;;;;;;;2.60;1.33;;;;;;;26.53;32.16;92146.28;5080930;28;20044;-81
2022/08/22 10:22:14;;;;;;;2.58;1.55;;;;;;;26.68;33.52;92148.88;5086010;28;20314;-81
2022/08/22 10:24:52;;;;;;;2.17;1.15;;;;;;;26.55;33.62;92145.94;5080039;28;20052;-80
2022/08/22 10:27:33;;;;;;;2.65;1.30;;;;;;;26.46;31.23;92142.91;5086928;28;20035;-79
2022/08/22 10:30:46;;;;;;;2.13;1.20;;;;;;;26.28;32.91;92134.97;5078804;28;20036;-81
2022/08/22 10:33:27;;;;;;;4.50;1.45;;;;;;;26.29;29.88;92128.44;5028512;28;20033;-81
2022/08/22 10:36:06;;;;;;;2.58;1.20;;;;;;;26.23;30.70;92132.69;5070404;28;20584;-80
2022/08/22 10:38:41;;;;;;;2.58;1.38;;;;;;;26.40;32.63;92139.84;5078966;28;20047;-82
2022/08/22 10:41:22;;;;;;;2.10;1.40;;;;;;;26.87;36.33;92139.53;5085559;28;20093;-80
2022/08/22 10:44:23;;;;;;;1.75;1.17;;;;;;;27.15;35.40;92135.84;5087715;28;20029;-80
2022/08/22 10:46:54;;;;;;;3.53;1.40;;;;;;;27.62;36.14;92138.84;5087496;28;20080;-80
2022/08/22 10:49:52;;;;;;;2.38;1.40;;;;;;;28.00;34.66;92131.47;5079083;28;20048;-82
2022/08/22 10:52:23;;;;;;;2.97;1.40;;;;;;;28.27;33.22;92133.44;5085758;28;20028;-81
2022/08/22 10:54:57;;;;;;;2.70;1.42;;;;;;;28.25;33.05;92125.00;5087228;28;20132;-81
2022/08/22 10:57:36;;;;;;;2.72;1.40;;;;;;;27.86;32.28;92115.53;5086514;28;20056;-81
2022/08/22 11:00:29;;;;;;;2.00;1.30;;;;;;;27.79;31.95;92123.66;5079305;28;20039;-80
2022/08/22 11:03:14;;;;;;;2.08;1.13;;;;;;;27.97;33.69;92124.22;5086350;28;20517;-79
2022/08/22 11:05:43;;;;;;;1.80;1.20;;;;;;;28.28;33.10;92116.13;5086264;28;20107;-80
2022/08/22 11:08:09;;;;;;;3.22;1.50;;;;;;;28.56;32.91;92127.69;5086584;28;20021;-82
2022/08/22 11:11:16;;;;;;;2.60;1.20;;;;;;;28.26;31.22;92123.84;5085922;28;20166;-81
2022/08/22 11:14:16;;;;;;;2.72;1.33;;;;;;;28.53;32.43;92118.50;5036223;28;20033;-79
2022/08/22 11:17:05;;;;;;;1.98;1.27;;;;;;;28.51;32.14;92125.47;5074293;28;20040;-81
2022/08/22 11:19:54;;;;;;;1.92;1.30;;;;;;;28.70;32.13;92127.44;5080404;28;20067;-81
2022/08/22 11:22:32;;;;;;;1.85;1.20;;;;;;;28.53;30.16;92133.84;5086788;28;20040;-81
2022/08/22 11:25:07;;;;;;;2.28;1.25;;;;;;;28.19;30.56;92130.09;5086460;28;20024;-81
2022/08/22 11:27:57;;;;;;;1.75;1.20;;;;;;;28.35;31.13;92124.09;5087342;28;20039;-82
2022/08/22 11:30:49;;;;;;;2.17;1.20;;;;;;;28.62;31.24;92115.28;5080372;28;20039;-81
2022/08/22 11:33:33;;;;;;;3.40;1.33;;;;;;;28.78;30.13;92122.72;5045400;28;20086;-80
2022/08/22 11:36:20;;;;;;;2.65;1.42;;;;;;;29.08;30.99;92129.16;5077526;28;20032;-82
2022/08/22 11:38:55;;;;;;;2.53;1.23;;;;;;;29.30;30.19;92126.91;5075256;28;20052;-80
2022/08/22 11:41:27;;;;;;;2.22;1.40;;;;;;;29.52;30.40;92119.94;5078367;28;20033;-82
2022/08/22 11:44:04;;;;;;;2.78;1.42;;;;;;;29.60;29.11;92126.69;5086404;28;20044;-80
2022/08/22 11:46:34;;;;;;;2.08;1.30;;;;;;;29.37;27.26;92129.44;5084550;28;20020;-80
2022/08/22 11:49:05;;;;;;;1.55;1.20;;;;;;;29.09;28.73;92123.38;5086219;28;20033;-80
2022/08/22 11:52:08;;;;;;;1.95;1.30;;;;;;;28.91;30.60;92125.59;5085168;28;20041;-81
2022/08/22 11:54:49;;;;;;;3.17;1.40;;;;;;;28.76;30.39;92119.69;5082233;28;20017;-80
2022/08/22 11:57:24;;;;;;;2.92;1.40;;;;;;;28.64;31.96;92112.91;5086575;28;20045;-81
2022/08/22 12:00:11;;;;;;;1.90;1.23;;;;;;;28.32;29.37;92095.31;5087642;28;20547;-82
2022/08/22 12:02:46;;;;;;;2.05;1.40;;;;;;;28.33;31.37;92106.84;5085460;28;20059;-80
2022/08/22 12:05:19;;;;;;;3.47;1.30;;;;;;;28.61;30.78;92094.91;5087207;28;20036;-81
2022/08/22 12:07:55;;;;;;;1.85;1.10;;;;;;;28.98;31.18;92093.13;5087226;28;20549;-81
2022/08/22 12:10:31;;;;;;;2.25;1.35;;;;;;;28.91;29.94;92093.25;5086969;28;20032;-79
2022/08/22 12:13:10;;;;;;;1.73;1.25;;;;;;;28.86;29.23;92089.84;5086276;28;20195;-81
2022/08/22 12:15:51;;;;;;;2.47;1.40;;;;;;;28.80;29.38;92088.81;5079838;28;20031;-81
2022/08/22 12:18:29;;;;;;;1.63;1.10;;;;;;;28.77;29.03;92089.63;5076745;28;20695;-80
2022/08/22 12:21:17;;;;;;;5.55;1.42;;;;;;;28.40;29.33;92087.91;5078551;28;20036;-81
2022/08/22 12:24:16;;;;;;;3.28;1.33;;;;;;;28.68;30.22;92086.69;5079940;28;20089;-81
2022/08/22 12:26:57;;;;;;;2.88;1.30;;;;;;;28.88;28.91;92080.63;5081798;28;20043;-81
2022/08/22 12:29:47;;;;;;;2.63;1.20;;;;;;;28.61;28.43;92073.38;5089963;28;20058;-80
2022/08/22 12:32:39;;;;;;;2.33;1.20;;;;;;;28.66;30.38;92067.50;5088570;28;20036;-81
2022/08/22 12:35:11;;;;;;;2.47;1.30;;;;;;;28.59;28.91;92067.63;5082473;28;20039;-81
2022/08/22 12:37:42;;;;;;;;;;;;;;;28.45;28.31;92065.91;5090733;28;20044;-80
2022/08/22 12:40:17;;;;;;;2.60;1.20;;;;;;;28.40;29.75;92066.38;5089384;28;19934;-81
2022/08/22 12:43:16;;;;;;;2.38;1.30;;;;;;;28.53;30.15;92063.88;5090289;28;20083;-81
2022/08/22 12:46:06;;;;;;;1.73;1.20;;;;;;;28.41;30.28;92051.72;5072539;28;20096;-81